Time;durP1;ratioP1;P1;durP2;ratioP2;P2;SDS_P1;SDS_P2;PMS_P1;PMS_P2;Temp;Humidity;BMP_temperature;BMP_pressure;BME280_temperature;BME280_humidity;BME280_pressure;Samples;Min_cycle;Max_cycle;Signal;HPM_P1;HPM_P2
2021/09/18 00:00:01;;;;;;;0.40;0.20;;;14.10;99.90;;;;;;4997197;28;20190;-66
2021/09/18 00:02:27;;;;;;;0.40;0.20;;;14.00;99.90;;;;;;4997030;28;20186;-65
2021/09/18 00:04:52;;;;;;;2.20;1.90;;;14.10;99.90;;;;;;4997966;28;20433;-67
2021/09/18 00:07:21;;;;;;;0.50;0.40;;;14.20;99.90;;;;;;4998379;28;20518;-67
2021/09/18 00:09:47;;;;;;;0.90;0.40;;;14.20;99.90;;;;;;4998829;28;20199;-65
2021/09/18 00:12:12;;;;;;;0.30;0.17;;;14.20;99.90;;;;;;4998277;28;20257;-63
2021/09/18 00:14:39;;;;;;;0.30;0.20;;;14.20;99.90;;;;;;4997433;28;20550;-63
2021/09/18 00:17:06;;;;;;;0.30;0.10;;;14.40;99.90;;;;;;4998150;28;20501;-63
2021/09/18 00:19:32;;;;;;;0.30;0.10;;;14.40;99.90;;;;;;4997766;28;20178;-64
2021/09/18 00:22:01;;;;;;;0.40;0.20;;;14.40;99.90;;;;;;4998247;28;20179;-65
2021/09/18 00:24:27;;;;;;;0.60;0.30;;;14.40;99.90;;;;;;4997362;28;20281;-65
2021/09/18 00:26:52;;;;;;;0.77;0.30;;;14.30;99.90;;;;;;4997704;28;20174;-65
2021/09/18 00:29:18;;;;;;;0.50;0.50;;;14.30;99.90;;;;;;4998130;28;20602;-64
2021/09/18 00:31:44;;;;;;;0.77;0.77;;;14.20;99.90;;;;;;4998426;28;20253;-65
2021/09/18 00:34:10;;;;;;;0.60;0.60;;;14.20;99.90;;;;;;4998333;28;20421;-64
2021/09/18 00:36:36;;;;;;;0.40;0.20;;;14.40;99.90;;;;;;4997064;28;20191;-68
2021/09/18 00:39:05;;;;;;;0.33;0.20;;;14.50;99.90;;;;;;4997235;28;20202;-67
2021/09/18 00:41:31;;;;;;;0.30;0.20;;;14.40;99.90;;;;;;4996723;28;20448;-67
2021/09/18 00:44:01;;;;;;;0.37;0.20;;;14.40;99.90;;;;;;4998098;28;20190;-67
2021/09/18 00:46:27;;;;;;;0.30;0.20;;;14.50;99.90;;;;;;4997845;28;20426;-67
2021/09/18 00:48:53;;;;;;;0.30;0.20;;;14.40;99.90;;;;;;4996209;28;20533;-67
2021/09/18 00:51:20;;;;;;;0.40;0.30;;;14.50;99.90;;;;;;4996704;28;20232;-67
2021/09/18 00:53:46;;;;;;;0.30;0.20;;;14.30;99.90;;;;;;4996798;28;20629;-67
2021/09/18 00:56:12;;;;;;;0.63;0.63;;;14.30;99.90;;;;;;4997625;28;20245;-67
2021/09/18 00:58:38;;;;;;;0.40;0.30;;;14.50;99.90;;;;;;4980744;28;20251;-67
2021/09/18 01:01:05;;;;;;;0.33;0.20;;;14.60;99.90;;;;;;4996966;28;20596;-65
2021/09/18 01:03:30;;;;;;;1.17;0.90;;;14.80;99.90;;;;;;4996268;28;20445;-64
2021/09/18 01:05:57;;;;;;;0.60;0.60;;;14.70;99.90;;;;;;4996310;28;20185;-65
2021/09/18 01:08:26;;;;;;;0.30;0.20;;;14.50;99.90;;;;;;4995848;28;20183;-65
2021/09/18 01:10:53;;;;;;;0.88;0.77;;;14.50;99.90;;;;;;4999075;28;20696;-65
2021/09/18 01:13:20;;;;;;;0.95;0.63;;;14.60;99.90;;;;;;4997192;28;20249;-65
2021/09/18 01:15:48;;;;;;;0.68;0.68;;;14.40;99.90;;;;;;4998169;28;20186;-66
2021/09/18 01:18:15;;;;;;;0.30;0.20;;;14.30;99.90;;;;;;4997927;28;20250;-65
2021/09/18 01:20:43;;;;;;;0.40;0.20;;;14.30;99.90;;;;;;4998870;28;20182;-65
2021/09/18 01:23:10;;;;;;;0.30;0.20;;;14.30;99.90;;;;;;4997638;28;20209;-65
2021/09/18 01:25:38;;;;;;;0.30;0.20;;;14.40;99.90;;;;;;4997678;28;20261;-65
2021/09/18 01:28:06;;;;;;;0.30;0.20;;;14.30;99.90;;;;;;4998353;28;20175;-64
2021/09/18 01:30:33;;;;;;;2.55;2.35;;;14.40;99.90;;;;;;4996969;28;20613;-65
2021/09/18 01:33:00;;;;;;;1.45;1.33;;;14.40;99.90;;;;;;4998688;28;20210;-64
2021/09/18 01:35:27;;;;;;;0.30;0.20;;;14.50;99.90;;;;;;4998782;28;20209;-63
2021/09/18 01:37:53;;;;;;;0.40;0.20;;;14.50;99.90;;;;;;4997429;28;20406;-65
2021/09/18 01:40:27;;;;;;;0.30;0.20;;;14.30;99.90;;;;;;4997782;28;20552;-65
2021/09/18 01:42:54;;;;;;;0.50;0.50;;;14.20;99.90;;;;;;4996351;28;20262;-64
2021/09/18 01:45:21;;;;;;;0.30;0.20;;;14.20;99.90;;;;;;4997101;28;20183;-65
2021/09/18 01:47:56;;;;;;;0.40;0.22;;;14.20;99.90;;;;;;4995523;28;20244;-65
2021/09/18 01:50:41;;;;;;;0.30;0.20;;;14.20;99.90;;;;;;4994830;28;20301;-65
2021/09/18 01:53:08;;;;;;;0.32;0.17;;;14.50;99.90;;;;;;4996148;28;20183;-65
2021/09/18 01:55:35;;;;;;;0.40;0.30;;;14.30;99.90;;;;;;4996316;28;20628;-64
2021/09/18 01:58:02;;;;;;;0.30;0.20;;;14.20;99.90;;;;;;4996382;28;20175;-64
2021/09/18 02:00:29;;;;;;;0.30;0.20;;;14.30;99.90;;;;;;4996296;28;20265;-64
2021/09/18 02:02:55;;;;;;;0.32;0.17;;;14.20;99.90;;;;;;4996465;28;20306;-65
2021/09/18 02:05:24;;;;;;;0.60;0.50;;;14.30;99.90;;;;;;4996244;28;20221;-63
2021/09/18 02:07:49;;;;;;;0.30;0.20;;;14.10;99.90;;;;;;4996729;28;20190;-64
2021/09/18 02:10:18;;;;;;;0.50;0.30;;;14.40;99.90;;;;;;4996099;28;20294;-66
2021/09/18 02:12:45;;;;;;;1.08;0.68;;;14.20;99.90;;;;;;4995831;28;20458;-67
2021/09/18 02:15:12;;;;;;;0.65;0.40;;;14.30;99.90;;;;;;4996076;28;20179;-65
2021/09/18 02:17:38;;;;;;;1.35;0.95;;;14.40;99.90;;;;;;4996596;28;20189;-65
2021/09/18 02:20:06;;;;;;;0.40;0.20;;;14.10;99.90;;;;;;4995911;28;20608;-65
2021/09/18 02:22:32;;;;;;;0.30;0.20;;;14.40;99.90;;;;;;4995046;28;20281;-65
2021/09/18 02:24:58;;;;;;;0.30;0.20;;;14.30;99.90;;;;;;4996052;28;20218;-64
2021/09/18 02:27:23;;;;;;;0.67;0.67;;;14.20;99.90;;;;;;4995028;28;20226;-65
2021/09/18 02:29:49;;;;;;;0.30;0.20;;;14.10;99.90;;;;;;4995509;28;20217;-64
2021/09/18 02:32:14;;;;;;;0.63;0.40;;;14.00;99.90;;;;;;4995087;28;20236;-64
2021/09/18 02:34:40;;;;;;;0.30;0.10;;;13.90;99.90;;;;;;4996082;28;20532;-64
2021/09/18 02:37:06;;;;;;;0.40;0.33;;;13.80;99.90;;;;;;4994707;28;20194;-64
2021/09/18 02:39:32;;;;;;;0.30;0.20;;;13.70;99.90;;;;;;4994997;28;20260;-63
2021/09/18 02:41:58;;;;;;;0.30;0.20;;;13.70;99.90;;;;;;4994580;28;20187;-64
2021/09/18 02:44:24;;;;;;;0.30;0.20;;;13.80;99.90;;;;;;4994612;28;20612;-67
2021/09/18 02:46:49;;;;;;;0.30;0.20;;;13.90;99.90;;;;;;4994273;28;20210;-63
2021/09/18 02:49:15;;;;;;;1.87;1.70;;;13.90;99.90;;;;;;4994967;28;20442;-64
2021/09/18 02:51:43;;;;;;;0.40;0.30;;;13.90;99.90;;;;;;4994627;28;20218;-63
2021/09/18 02:54:09;;;;;;;0.40;0.30;;;14.10;99.90;;;;;;4995600;28;20209;-63
2021/09/18 02:56:35;;;;;;;0.30;0.20;;;13.90;99.90;;;;;;4994631;28;20536;-63
2021/09/18 02:59:00;;;;;;;0.30;0.20;;;14.00;99.90;;;;;;4995873;28;20190;-63
2021/09/18 03:01:26;;;;;;;0.30;0.20;;;14.10;99.90;;;;;;4994233;28;20225;-64
2021/09/18 03:03:52;;;;;;;0.30;0.20;;;14.10;99.90;;;;;;4994986;28;20217;-64
2021/09/18 03:06:17;;;;;;;0.30;0.20;;;13.90;99.90;;;;;;4995420;28;20202;-64
2021/09/18 03:08:43;;;;;;;0.30;0.20;;;13.90;99.90;;;;;;4994284;28;20187;-64
2021/09/18 03:11:08;;;;;;;0.40;0.20;;;13.90;99.90;;;;;;4993314;28;20360;-63
2021/09/18 03:13:35;;;;;;;0.30;0.20;;;13.90;99.90;;;;;;4994228;28;20183;-63
2021/09/18 03:16:02;;;;;;;4.13;2.28;;;13.90;99.90;;;;;;4993172;28;20189;-66
2021/09/18 03:18:28;;;;;;;0.50;0.20;;;13.80;99.90;;;;;;4993740;28;20187;-66
2021/09/18 03:20:54;;;;;;;0.30;0.20;;;13.70;99.90;;;;;;4994152;28;20241;-66
2021/09/18 03:23:19;;;;;;;0.40;0.30;;;13.80;99.90;;;;;;4994172;28;20576;-67
2021/09/18 03:25:45;;;;;;;0.30;0.20;;;13.90;99.90;;;;;;4993886;28;20270;-67
2021/09/18 03:28:10;;;;;;;0.30;0.20;;;14.20;99.90;;;;;;4993799;28;20218;-67
2021/09/18 03:30:36;;;;;;;0.30;0.20;;;14.30;99.90;;;;;;4994174;28;20306;-67
2021/09/18 03:33:02;;;;;;;0.40;0.20;;;14.10;99.90;;;;;;4994082;28;20461;-68
2021/09/18 03:35:28;;;;;;;0.30;0.20;;;13.90;99.90;;;;;;4994143;28;20612;-68
2021/09/18 03:37:54;;;;;;;0.30;0.20;;;14.00;99.90;;;;;;4992902;28;20270;-67
2021/09/18 03:40:20;;;;;;;1.53;1.43;;;14.00;99.90;;;;;;4994033;28;20278;-67
2021/09/18 03:42:45;;;;;;;1.10;0.77;;;13.90;99.90;;;;;;4993878;28;20194;-64
2021/09/18 03:45:11;;;;;;;0.30;0.10;;;14.00;99.90;;;;;;4992761;28;20583;-63
2021/09/18 03:47:37;;;;;;;0.30;0.20;;;13.90;99.90;;;;;;4992895;28;20198;-63
2021/09/18 03:50:04;;;;;;;0.35;0.22;;;14.10;99.90;;;;;;4993176;28;20543;-63
2021/09/18 03:52:29;;;;;;;0.30;0.10;;;14.20;99.90;;;;;;4993832;28;20199;-63
2021/09/18 03:54:55;;;;;;;0.40;0.40;;;14.10;99.90;;;;;;4993852;28;20187;-63
2021/09/18 03:57:21;;;;;;;1.20;1.17;;;14.10;99.90;;;;;;4993632;28;20276;-63
2021/09/18 03:59:47;;;;;;;0.40;0.30;;;14.00;99.90;;;;;;4994063;28;20489;-64
2021/09/18 04:02:12;;;;;;;0.30;0.20;;;14.00;99.90;;;;;;4993700;28;20425;-63
2021/09/18 04:04:38;;;;;;;0.50;0.50;;;13.90;99.90;;;;;;4993731;28;20202;-63
2021/09/18 04:07:04;;;;;;;0.30;0.20;;;13.90;99.90;;;;;;4993631;28;20215;-63
2021/09/18 04:09:30;;;;;;;0.30;0.20;;;14.00;99.90;;;;;;4993482;28;20194;-64
2021/09/18 04:11:55;;;;;;;0.37;0.27;;;14.00;99.90;;;;;;4993631;28;20468;-63
2021/09/18 04:14:21;;;;;;;0.40;0.30;;;14.00;99.90;;;;;;4995326;28;20756;-64
2021/09/18 04:16:47;;;;;;;0.30;0.20;;;13.90;99.90;;;;;;4995950;28;20189;-63
2021/09/18 04:19:13;;;;;;;0.30;0.10;;;14.00;99.90;;;;;;4996897;28;20480;-64
2021/09/18 04:21:39;;;;;;;1.03;1.03;;;14.10;99.90;;;;;;4997159;28;20198;-64
2021/09/18 04:24:05;;;;;;;1.47;1.23;;;14.10;99.90;;;;;;4997117;28;20261;-64
2021/09/18 04:26:32;;;;;;;0.30;0.20;;;14.10;99.90;;;;;;4996833;28;20465;-63
2021/09/18 04:28:57;;;;;;;0.30;0.20;;;14.10;99.90;;;;;;4996736;28;20438;-63
2021/09/18 04:31:23;;;;;;;0.40;0.27;;;14.20;99.90;;;;;;4996653;28;20229;-63
2021/09/18 04:33:49;;;;;;;0.30;0.17;;;14.10;99.90;;;;;;4996710;28;20189;-64
2021/09/18 04:36:15;;;;;;;0.30;0.20;;;14.20;99.90;;;;;;4996535;28;20428;-63
2021/09/18 04:38:40;;;;;;;1.07;1.03;;;14.10;99.90;;;;;;4996374;28;20639;-67
2021/09/18 04:41:06;;;;;;;0.30;0.20;;;14.10;99.90;;;;;;4996563;28;20206;-67
2021/09/18 04:43:32;;;;;;;0.30;0.20;;;14.20;99.90;;;;;;4996564;28;20198;-67
2021/09/18 04:45:57;;;;;;;0.30;0.20;;;14.10;99.90;;;;;;4996459;28;20211;-67
2021/09/18 04:48:23;;;;;;;0.87;0.63;;;14.10;99.90;;;;;;4996086;28;20187;-67
2021/09/18 04:50:48;;;;;;;0.30;0.20;;;14.20;99.90;;;;;;4996432;28;20206;-67
2021/09/18 04:53:14;;;;;;;0.30;0.20;;;14.20;99.90;;;;;;4996351;28;20470;-67
2021/09/18 04:55:40;;;;;;;0.30;0.20;;;14.30;99.90;;;;;;4996344;28;20171;-67
2021/09/18 04:58:05;;;;;;;0.30;0.20;;;14.30;99.90;;;;;;4996046;28;20273;-67
2021/09/18 05:00:31;;;;;;;0.30;0.20;;;14.30;99.90;;;;;;4996203;28;20194;-67
2021/09/18 05:02:56;;;;;;;0.40;0.30;;;14.40;99.90;;;;;;4996230;28;20566;-67
2021/09/18 05:05:22;;;;;;;0.30;0.20;;;14.40;99.90;;;;;;4996187;28;20733;-66
2021/09/18 05:07:48;;;;;;;0.40;0.30;;;14.30;99.90;;;;;;4996057;28;20191;-67
2021/09/18 05:10:13;;;;;;;0.50;0.37;;;14.30;99.90;;;;;;4995750;28;20535;-66
2021/09/18 05:12:39;;;;;;;0.30;0.20;;;14.30;99.90;;;;;;4995882;28;20338;-66
2021/09/18 05:15:06;;;;;;;1.03;0.43;;;14.20;99.90;;;;;;4996110;28;20186;-66
2021/09/18 05:17:32;;;;;;;0.30;0.10;;;14.20;99.90;;;;;;4995642;28;20261;-66
2021/09/18 05:19:58;;;;;;;0.40;0.30;;;14.40;99.90;;;;;;4995840;28;20214;-66
2021/09/18 05:22:23;;;;;;;0.30;0.20;;;14.40;99.90;;;;;;4995814;28;20429;-66
2021/09/18 05:24:49;;;;;;;0.30;0.20;;;14.30;99.90;;;;;;4995596;28;20194;-66
2021/09/18 05:27:15;;;;;;;0.80;0.63;;;14.40;99.90;;;;;;4995440;28;20202;-66
2021/09/18 05:29:43;;;;;;;1.20;1.20;;;14.40;99.90;;;;;;4995451;28;20489;-66
2021/09/18 05:32:09;;;;;;;0.30;0.20;;;14.40;99.90;;;;;;4995638;28;20749;-63
2021/09/18 05:34:34;;;;;;;0.30;0.20;;;14.40;99.90;;;;;;4995468;28;20186;-63
2021/09/18 05:37:00;;;;;;;0.70;0.67;;;14.50;99.90;;;;;;4995588;28;20441;-63
2021/09/18 05:39:26;;;;;;;0.30;0.20;;;14.40;99.90;;;;;;4991690;28;20281;-62
2021/09/18 05:41:51;;;;;;;0.30;0.17;;;14.50;99.90;;;;;;4994311;28;20191;-63
2021/09/18 05:44:17;;;;;;;0.30;0.20;;;14.70;99.90;;;;;;4994804;28;20222;-63
2021/09/18 05:46:42;;;;;;;0.30;0.20;;;14.60;99.90;;;;;;4994591;28;20215;-63
2021/09/18 05:49:08;;;;;;;0.30;0.20;;;14.70;99.90;;;;;;4994704;28;20202;-66
2021/09/18 05:51:34;;;;;;;0.30;0.20;;;14.90;99.90;;;;;;4994396;28;20289;-66
2021/09/18 05:53:59;;;;;;;0.30;0.20;;;14.90;99.90;;;;;;4994957;28;20183;-67
2021/09/18 05:56:25;;;;;;;1.90;1.80;;;15.10;99.90;;;;;;4994105;28;20194;-67
2021/09/18 05:58:50;;;;;;;0.97;0.73;;;15.20;99.90;;;;;;4994784;28;20190;-64
2021/09/18 06:01:16;;;;;;;0.53;0.53;;;15.20;99.90;;;;;;4992023;28;20205;-68
2021/09/18 06:03:41;;;;;;;0.30;0.20;;;15.20;99.90;;;;;;4991327;28;20202;-68
2021/09/18 06:06:07;;;;;;;1.83;0.50;;;15.10;99.90;;;;;;4994749;28;20663;-65
2021/09/18 06:08:33;;;;;;;0.40;0.20;;;15.20;99.90;;;;;;4994643;28;20237;-66
2021/09/18 06:10:58;;;;;;;0.50;0.47;;;15.40;99.90;;;;;;4994589;28;20305;-66
2021/09/18 06:13:24;;;;;;;0.30;0.10;;;15.50;99.90;;;;;;4994526;28;20537;-68
2021/09/18 06:15:50;;;;;;;0.30;0.20;;;15.30;99.90;;;;;;4994573;28;20245;-65
2021/09/18 06:18:15;;;;;;;0.40;0.20;;;15.40;99.90;;;;;;4994295;28;20440;-65
2021/09/18 06:20:41;;;;;;;1.60;1.50;;;15.30;99.90;;;;;;4994611;28;20205;-65
2021/09/18 06:23:06;;;;;;;0.30;0.20;;;15.40;99.90;;;;;;4994903;28;20277;-65
2021/09/18 06:25:32;;;;;;;0.97;0.97;;;15.50;99.90;;;;;;4994661;28;20274;-65
2021/09/18 06:27:58;;;;;;;0.50;0.40;;;15.40;99.90;;;;;;4993927;28;20686;-65
2021/09/18 06:30:23;;;;;;;0.30;0.20;;;15.40;99.90;;;;;;4987240;28;20211;-66
2021/09/18 06:32:49;;;;;;;0.30;0.20;;;15.70;99.90;;;;;;4984612;28;20183;-67
2021/09/18 06:35:14;;;;;;;0.40;0.20;;;15.80;99.90;;;;;;4983899;28;20182;-67
2021/09/18 06:37:45;;;;;;;0.40;0.40;;;15.90;99.90;;;;;;4985787;28;20207;-67
2021/09/18 06:40:13;;;;;;;0.40;0.20;;;15.90;99.90;;;;;;4985912;28;20519;-68
2021/09/18 06:42:38;;;;;;;1.60;1.48;;;15.90;99.90;;;;;;4983408;28;20194;-67
2021/09/18 06:45:07;;;;;;;0.93;0.83;;;15.90;99.90;;;;;;4977415;28;20183;-66
2021/09/18 06:47:32;;;;;;;0.80;0.67;;;16.00;99.90;;;;;;4985593;28;20702;-66
2021/09/18 06:49:58;;;;;;;0.40;0.20;;;16.00;99.90;;;;;;4994183;28;20470;-67
2021/09/18 06:52:24;;;;;;;0.40;0.20;;;16.30;99.90;;;;;;4994706;28;20430;-67
2021/09/18 06:54:49;;;;;;;0.40;0.20;;;16.60;99.90;;;;;;4994870;28;20190;-68
2021/09/18 06:57:15;;;;;;;0.40;0.10;;;16.60;99.90;;;;;;4982737;28;20625;-67
2021/09/18 06:59:40;;;;;;;0.40;0.20;;;16.80;99.90;;;;;;4972803;28;20187;-66
2021/09/18 07:02:08;;;;;;;0.87;0.87;;;17.00;99.90;;;;;;4983492;28;20186;-65
2021/09/18 07:04:35;;;;;;;0.40;0.13;;;16.90;99.90;;;;;;4994591;28;20183;-61
2021/09/18 07:07:04;;;;;;;0.40;0.10;;;16.70;99.90;;;;;;4992095;28;20430;-62
2021/09/18 07:09:30;;;;;;;0.53;0.50;;;17.10;99.90;;;;;;4993582;28;20430;-64
2021/09/18 07:11:56;;;;;;;0.40;0.20;;;16.60;99.90;;;;;;4994045;28;20445;-64
2021/09/18 07:14:22;;;;;;;0.40;0.20;;;16.10;99.90;;;;;;4993542;28;20446;-64
2021/09/18 07:16:47;;;;;;;0.40;0.17;;;16.10;99.90;;;;;;4993274;28;20186;-64
2021/09/18 07:19:13;;;;;;;0.40;0.20;;;16.40;99.90;;;;;;4993045;28;20198;-67
2021/09/18 07:21:39;;;;;;;0.40;0.10;;;16.70;99.90;;;;;;4994176;28;20476;-62
2021/09/18 07:24:06;;;;;;;0.40;0.20;;;16.80;99.90;;;;;;4994155;28;20433;-63
2021/09/18 07:26:32;;;;;;;0.73;0.73;;;16.90;99.90;;;;;;4993122;28;20183;-63
2021/09/18 07:28:58;;;;;;;0.40;0.20;;;16.60;99.90;;;;;;4993647;28;20460;-62
2021/09/18 07:31:24;;;;;;;0.60;0.40;;;16.70;99.90;;;;;;4994009;28;20975;-63
2021/09/18 07:33:49;;;;;;;0.40;0.20;;;17.40;99.90;;;;;;4994140;28;20193;-63
2021/09/18 07:36:15;;;;;;;0.40;0.20;;;17.20;99.90;;;;;;4994298;28;20174;-66
2021/09/18 07:38:41;;;;;;;0.40;0.20;;;17.30;99.90;;;;;;4994014;28;20171;-65
2021/09/18 07:41:07;;;;;;;0.50;0.30;;;17.90;99.90;;;;;;4994188;28;20457;-66
2021/09/18 07:43:33;;;;;;;0.40;0.13;;;18.60;99.90;;;;;;4993904;28;20438;-65
2021/09/18 07:46:02;;;;;;;0.40;0.10;;;18.40;99.90;;;;;;4994056;28;20211;-64
2021/09/18 07:48:28;;;;;;;0.40;0.10;;;18.20;99.90;;;;;;4994496;28;20456;-64
2021/09/18 07:50:54;;;;;;;0.40;0.10;;;18.20;99.90;;;;;;4997640;28;20493;-64
2021/09/18 07:53:20;;;;;;;0.40;0.20;;;17.60;99.90;;;;;;4996771;28;20476;-61
2021/09/18 07:55:45;;;;;;;0.40;0.10;;;17.80;99.90;;;;;;4997709;28;20450;-62
2021/09/18 07:58:11;;;;;;;0.40;0.20;;;17.70;99.90;;;;;;4997118;28;20253;-61
2021/09/18 08:00:37;;;;;;;0.40;0.20;;;17.70;99.90;;;;;;4997222;28;20654;-62
2021/09/18 08:03:03;;;;;;;0.40;0.20;;;17.60;99.90;;;;;;4980960;28;20621;-63
2021/09/18 08:05:29;;;;;;;0.40;0.20;;;17.80;99.90;;;;;;4997184;28;20450;-65
2021/09/18 08:07:54;;;;;;;0.50;0.40;;;18.10;99.90;;;;;;4997060;28;20440;-65
2021/09/18 08:10:21;;;;;;;0.40;0.10;;;17.90;90.20;;;;;;4995493;28;20465;-65
2021/09/18 08:12:49;;;;;;;0.40;0.20;;;18.10;99.90;;;;;;4995905;28;20209;-65
2021/09/18 08:15:16;;;;;;;0.40;0.20;;;17.80;99.90;;;;;;4977832;28;20497;-65
2021/09/18 08:17:44;;;;;;;0.50;0.33;;;17.90;96.20;;;;;;4982451;28;20433;-65
2021/09/18 08:20:10;;;;;;;0.60;0.50;;;18.00;1.00;;;;;;4997427;28;20512;-62
2021/09/18 08:22:36;;;;;;;0.43;0.20;;;17.70;58.40;;;;;;4997038;28;20444;-64
2021/09/18 08:25:04;;;;;;;2.70;0.50;;;17.50;99.90;;;;;;4993395;28;20521;-63
2021/09/18 08:27:29;;;;;;;1.90;1.30;;;17.60;99.90;;;;;;4989243;28;20550;-63
2021/09/18 08:29:55;;;;;;;0.50;0.30;;;17.70;99.90;;;;;;4985493;28;21012;-64
2021/09/18 08:32:20;;;;;;;0.90;0.30;;;17.60;94.00;;;;;;4987421;28;20237;-62
2021/09/18 08:34:46;;;;;;;0.40;0.20;;;16.80;99.90;;;;;;4987018;28;20521;-63
2021/09/18 08:37:12;;;;;;;0.60;0.30;;;16.80;99.90;;;;;;4993739;28;20183;-63
2021/09/18 08:39:38;;;;;;;0.40;0.20;;;17.00;99.90;;;;;;4988713;28;20225;-65
2021/09/18 08:42:05;;;;;;;0.60;0.60;;;17.40;99.90;;;;;;4984919;28;20172;-68
2021/09/18 08:44:31;;;;;;;0.40;0.20;;;17.50;99.90;;;;;;4985398;28;20446;-66
2021/09/18 08:46:59;;;;;;;0.40;0.20;;;17.30;99.90;;;;;;4986811;28;20430;-68
2021/09/18 08:49:27;;;;;;;0.40;0.20;;;17.30;99.90;;;;;;4987814;28;20890;-64
2021/09/18 08:51:53;;;;;;;0.40;0.20;;;17.50;99.90;;;;;;4988252;28;20489;-64
2021/09/18 08:54:19;;;;;;;0.50;0.40;;;17.40;99.90;;;;;;4995341;28;20525;-66
2021/09/18 08:56:45;;;;;;;0.40;0.30;;;17.10;99.90;;;;;;4996431;28;20588;-64
2021/09/18 08:59:10;;;;;;;0.40;0.10;;;17.40;99.90;;;;;;4991473;28;20230;-64
2021/09/18 09:01:36;;;;;;;0.57;0.43;;;17.80;1.00;;;;;;4984302;28;20191;-63
2021/09/18 09:04:07;;;;;;;0.40;0.20;;;18.00;1.00;;;;;;4984081;28;20637;-63
2021/09/18 09:06:52;;;;;;;2.93;0.70;;;17.60;55.10;;;;;;4988209;28;20560;-64
2021/09/18 09:09:18;;;;;;;0.90;0.90;;;17.50;99.90;;;;;;4986561;28;20437;-66
2021/09/18 09:11:52;;;;;;;0.40;0.20;;;17.80;99.90;;;;;;4993597;28;20461;-65
2021/09/18 09:14:18;;;;;;;0.80;0.47;;;17.80;36.30;;;;;;4996562;28;20513;-65
2021/09/18 09:17:04;;;;;;;0.50;0.30;;;18.00;1.00;;;;;;4988414;28;20920;-67
2021/09/18 09:19:38;;;;;;;0.40;0.20;;;17.70;12.00;;;;;;4976132;28;20711;-67
2021/09/18 09:22:03;;;;;;;3.40;2.33;;;17.60;70.10;;;;;;4976684;28;20430;-67
2021/09/18 09:24:30;;;;;;;3.77;3.50;;;17.60;43.70;;;;;;4959254;28;20430;-67
2021/09/18 09:27:14;;;;;;;0.60;0.53;;;17.50;98.40;;;;;;4976061;28;20210;-66
2021/09/18 09:29:42;;;;;;;1.43;0.80;;;17.40;99.90;;;;;;4976119;28;20763;-66
2021/09/18 09:32:34;;;;;;;0.40;0.20;;;16.90;69.90;;;;;;4976126;28;20435;-67
2021/09/18 09:35:12;;;;;;;6.87;2.67;;;17.00;99.90;;;;;;4976366;28;20427;-63
2021/09/18 09:37:38;;;;;;;0.40;0.13;;;17.50;86.40;;;;;;4976213;28;20415;-63
2021/09/18 09:40:12;;;;;;;0.40;0.20;;;17.70;1.00;;;;;;4976639;28;20431;-64
2021/09/18 09:42:43;;;;;;;0.40;0.20;;;17.70;1.00;;;;;;4976155;28;20516;-64
2021/09/18 09:45:19;;;;;;;0.40;0.20;;;18.00;1.00;;;;;;4976035;28;20462;-63
2021/09/18 09:47:58;;;;;;;0.40;0.20;;;18.60;1.00;;;;;;4975982;28;20526;-63
2021/09/18 09:50:24;;;;;;;0.40;0.20;;;18.90;1.00;;;;;;4974669;28;20479;-65
2021/09/18 09:52:50;;;;;;;0.40;0.13;;;19.00;1.00;;;;;;4976134;28;20757;-65
2021/09/18 09:55:18;;;;;;;0.40;0.20;;;19.00;1.00;;;;;;4975040;28;20183;-67
2021/09/18 09:58:05;;;;;;;0.40;0.20;;;18.50;1.00;;;;;;4974563;28;20505;-66
2021/09/18 10:00:37;;;;;;;1.00;0.90;;;17.90;99.90;;;;;;4975394;28;20830;-67
2021/09/18 10:03:03;;;;;;;1.60;1.50;;;17.50;99.90;;;;;;4974404;28;20438;-64
2021/09/18 10:05:28;;;;;;;0.60;0.50;;;17.10;99.90;;;;;;4975747;28;20516;-67
2021/09/18 10:07:54;;;;;;;0.70;0.60;;;17.50;99.90;;;;;;4975622;28;20176;-66
2021/09/18 10:10:20;;;;;;;0.40;0.20;;;18.00;99.90;;;;;;4975639;28;20207;-65
2021/09/18 10:12:46;;;;;;;0.73;0.73;;;18.60;99.90;;;;;;4974235;28;21056;-65
2021/09/18 10:15:12;;;;;;;0.50;0.30;;;18.80;1.00;;;;;;4974720;28;20446;-64
2021/09/18 10:18:00;;;;;;;0.40;0.20;;;19.20;1.00;;;;;;4975882;28;20431;-69
2021/09/18 10:25:40;;;;;;;0.40;0.20;;;20.10;99.90;;;;;;4976007;28;20246;-65
2021/09/18 10:28:13;;;;;;;0.80;0.40;;;19.80;99.90;;;;;;4975072;28;20431;-66
2021/09/18 10:30:44;;;;;;;0.73;0.73;;;19.00;1.00;;;;;;4975611;28;20474;-65
2021/09/18 10:33:29;;;;;;;2.00;1.90;;;19.60;1.00;;;;;;4975917;28;20418;-64
2021/09/18 10:36:00;;;;;;;0.40;0.20;;;19.70;1.00;;;;;;4975641;28;20431;-63
2021/09/18 10:38:32;;;;;;;0.40;0.20;;;19.50;99.90;;;;;;4975896;28;20419;-63
2021/09/18 10:41:02;;;;;;;0.40;0.17;;;19.30;1.00;;;;;;4975336;28;20509;-63
2021/09/18 10:43:37;;;;;;;0.50;0.37;;;19.40;1.00;;;;;;4975156;28;20494;-64
2021/09/18 10:46:04;;;;;;;0.50;0.30;;;19.80;99.90;;;;;;4973998;28;20513;-65
2021/09/18 10:48:34;;;;;;;0.40;0.20;;;19.90;99.90;;;;;;4974885;28;20471;-67
2021/09/18 10:51:00;;;;;;;0.40;0.20;;;19.60;99.90;;;;;;4975154;28;20462;-66
2021/09/18 10:53:25;;;;;;;0.50;0.30;;;19.70;99.90;;;;;;4974821;28;20434;-65
2021/09/18 10:55:52;;;;;;;0.40;0.20;;;19.30;1.00;;;;;;4974818;28;20605;-64
2021/09/18 10:58:18;;;;;;;0.40;0.20;;;18.70;1.00;;;;;;4974366;28;20175;-65
2021/09/18 11:00:52;;;;;;;0.40;0.20;;;18.80;26.30;;;;;;4975108;28;20778;-64
2021/09/18 11:03:42;;;;;;;0.40;0.13;;;19.10;94.40;;;;;;4973411;28;20450;-67
2021/09/18 11:06:29;;;;;;;0.40;0.20;;;19.30;1.00;;;;;;4975113;28;20889;-66
2021/09/18 11:08:55;;;;;;;0.40;0.20;;;19.40;1.00;;;;;;4982119;28;20439;-64
2021/09/18 11:11:25;;;;;;;0.40;0.20;;;19.60;1.00;;;;;;4984091;28;20576;-65
2021/09/18 11:13:52;;;;;;;0.40;0.13;;;19.40;1.00;;;;;;4982978;28;20548;-65
2021/09/18 11:16:32;;;;;;;0.40;0.20;;;19.60;1.00;;;;;;4981564;28;20427;-64
2021/09/18 11:19:11;;;;;;;0.40;0.20;;;19.40;1.00;;;;;;4983560;28;20455;-67
2021/09/18 11:21:43;;;;;;;0.40;0.10;;;19.30;1.00;;;;;;4983129;28;20454;-65
2021/09/18 11:24:14;;;;;;;0.40;0.17;;;19.40;1.00;;;;;;4988980;28;20757;-65
2021/09/18 11:26:58;;;;;;;0.40;0.20;;;19.20;1.00;;;;;;4988895;28;20440;-65
2021/09/18 11:29:35;;;;;;;0.40;0.17;;;18.90;33.60;;;;;;4987952;28;20505;-64
2021/09/18 11:32:04;;;;;;;0.60;0.47;;;18.80;99.90;;;;;;4987849;28;20521;-64
2021/09/18 11:34:33;;;;;;;0.40;0.20;;;18.70;6.70;;;;;;4986723;28;20924;-64
2021/09/18 11:37:00;;;;;;;0.40;0.20;;;18.00;20.00;;;;;;4986866;28;20449;-64
2021/09/18 11:39:47;;;;;;;0.40;0.20;;;17.60;99.90;;;;;;4987990;28;20436;-64
2021/09/18 11:42:23;;;;;;;0.40;0.20;;;17.50;99.90;;;;;;4988789;28;20417;-64
2021/09/18 11:44:56;;;;;;;0.40;0.17;;;17.80;99.90;;;;;;4989023;28;20540;-63
2021/09/18 11:47:29;;;;;;;0.40;0.20;;;17.70;99.90;;;;;;4987654;28;20419;-64
2021/09/18 11:49:55;;;;;;;0.40;0.20;;;17.70;99.90;;;;;;4983115;28;20437;-65
2021/09/18 11:52:35;;;;;;;0.40;0.20;;;18.30;99.90;;;;;;4988301;28;20437;-64
2021/09/18 11:55:02;;;;;;;1.43;0.97;;;18.70;99.90;;;;;;4988365;28;20494;-65
2021/09/18 11:57:28;;;;;;;0.40;0.20;;;18.80;99.90;;;;;;4986088;28;20431;-67
2021/09/18 11:59:53;;;;;;;0.40;0.17;;;18.70;29.00;;;;;;4985471;28;20441;-65
2021/09/18 12:02:30;;;;;;;0.40;0.10;;;19.00;4.40;;;;;;4988285;28;20190;-65
2021/09/18 12:04:56;;;;;;;0.53;0.20;;;18.50;99.90;;;;;;4987529;28;20190;-66
2021/09/18 12:07:21;;;;;;;0.40;0.20;;;18.10;42.90;;;;;;4986064;28;20911;-65
2021/09/18 12:09:48;;;;;;;0.40;0.17;;;18.30;92.80;;;;;;4987222;28;20318;-65
2021/09/18 12:12:13;;;;;;;0.50;0.27;;;18.30;93.30;;;;;;4987655;28;20171;-65
2021/09/18 12:14:39;;;;;;;0.40;0.20;;;18.20;85.30;;;;;;4985920;28;20765;-64
2021/09/18 12:17:16;;;;;;;0.40;0.20;;;17.90;99.90;;;;;;4987520;28;20245;-65
2021/09/18 12:19:43;;;;;;;0.40;0.10;;;18.00;99.90;;;;;;4984751;28;20241;-65
2021/09/18 12:22:09;;;;;;;0.63;0.50;;;18.10;99.90;;;;;;4988970;28;20523;-68
2021/09/18 12:24:38;;;;;;;0.60;0.30;;;17.60;99.90;;;;;;4986159;28;20430;-63
2021/09/18 12:27:32;;;;;;;0.40;0.20;;;17.20;99.90;;;;;;4985852;28;20439;-67
2021/09/18 12:30:06;;;;;;;0.50;0.20;;;17.20;99.90;;;;;;4987495;28;20430;-65
2021/09/18 12:32:32;;;;;;;0.40;0.20;;;17.90;99.90;;;;;;4987260;28;20805;-66
2021/09/18 12:35:03;;;;;;;0.40;0.20;;;18.00;99.90;;;;;;4985062;28;20423;-64
2021/09/18 12:37:32;;;;;;;0.40;0.20;;;17.90;52.60;;;;;;4986887;28;20943;-67
2021/09/18 12:40:09;;;;;;;0.40;0.10;;;18.20;99.90;;;;;;4987699;28;20426;-67
2021/09/18 12:42:35;;;;;;;0.40;0.20;;;18.70;78.80;;;;;;4981262;28;20477;-66
2021/09/18 12:45:19;;;;;;;0.40;0.30;;;19.10;1.00;;;;;;4986057;28;20426;-65
2021/09/18 12:47:44;;;;;;;0.40;0.20;;;19.80;1.00;;;;;;4990207;28;20183;-65
2021/09/18 12:50:17;;;;;;;0.40;0.20;;;20.30;1.00;;;;;;4993104;28;20473;-67
2021/09/18 12:52:44;;;;;;;0.40;0.20;;;20.00;99.90;;;;;;4986380;28;20175;-66
2021/09/18 12:55:10;;;;;;;0.40;0.10;;;19.80;99.90;;;;;;4987011;28;20427;-65